Time;durP1;ratioP1;P1;durP2;ratioP2;P2;SDS_P1;SDS_P2;PMS_P1;PMS_P2;Temp;Humidity;BMP_temperature;BMP_pressure;BME280_temperature;BME280_humidity;BME280_pressure;Samples;Min_cycle;Max_cycle;Signal;HPM_P1;HPM_P2
2022/06/13 00:02:02;;;;;;;3.65;1.02;;;22.80;37.00;;;21.06;39.17;101244.66;12241677;19;20031;-83
2022/06/13 00:06:04;;;;;;;2.95;1.30;;;23.00;37.10;;;21.01;39.23;101253.03;12234373;19;20015;-83
2022/06/13 00:10:08;;;;;;;2.42;1.35;;;22.70;37.00;;;20.84;39.04;101221.88;12234852;19;20377;-83
2022/06/13 00:14:10;;;;;;;2.42;0.93;;;22.70;37.00;;;20.91;39.52;101236.28;12240467;19;20033;-83
2022/06/13 00:18:11;;;;;;;6.05;1.00;;;22.70;37.10;;;20.87;39.43;101245.47;12236080;19;20030;-83
2022/06/13 00:22:13;;;;;;;2.35;0.85;;;22.70;37.20;;;20.80;39.62;101233.75;12237156;19;20472;-83
2022/06/13 00:26:15;;;;;;;3.60;1.15;;;22.60;37.20;;;20.78;39.59;101237.38;12237556;19;20006;-83
2022/06/13 00:30:17;;;;;;;1.25;0.95;;;22.50;37.20;;;20.68;39.79;101225.06;12234772;19;20014;-83
2022/06/13 00:34:19;;;;;;;2.10;1.15;;;22.50;37.40;;;20.67;39.59;101234.84;12239044;19;20010;-83
2022/06/13 00:38:21;;;;;;;1.48;1.17;;;22.60;37.50;;;20.71;39.74;101236.25;12233979;19;20018;-83
2022/06/13 00:42:25;;;;;;;4.68;1.00;;;22.50;37.50;;;20.74;39.82;101229.84;12239479;19;20696;-83
2022/06/13 00:46:33;;;;;;;2.53;1.13;;;22.50;37.60;;;20.55;39.76;101206.78;12234855;19;20015;-83
2022/06/13 00:50:53;;;;;;;2.60;1.25;;;22.50;37.60;;;20.61;40.31;101223.97;12234587;19;20015;-83
2022/06/13 00:54:55;;;;;;;1.73;0.75;;;22.40;37.70;;;20.54;39.83;101221.84;12236378;19;20011;-84
2022/06/13 00:59:05;;;;;;;1.58;0.90;;;22.40;37.70;;;20.55;40.32;101218.22;12238037;19;20015;-83
2022/06/13 01:03:07;;;;;;;2.47;0.85;;;22.40;37.80;;;20.50;40.19;101225.72;12238771;19;20014;-83
2022/06/13 01:07:10;;;;;;;5.05;0.98;;;22.30;37.80;;;20.39;40.63;101227.63;12246403;19;20410;-83
2022/06/13 01:11:18;;;;;;;2.35;0.90;;;22.30;37.80;;;20.08;40.68;101179.97;12238258;19;20458;-83
2022/06/13 01:15:58;;;;;;;2.45;0.77;;;22.20;37.90;;;20.41;40.50;101238.94;12248132;19;20052;-83
2022/06/13 01:20:17;;;;;;;1.13;0.88;;;22.10;38.00;;;20.38;40.75;101242.72;12246977;19;20377;-83
2022/06/13 01:25:00;;;;;;;2.92;1.13;;;22.20;38.10;;;20.33;40.37;101253.75;12248906;19;20028;-83
2022/06/13 01:29:33;;;;;;;1.58;1.08;;;22.10;38.00;;;20.30;40.98;101239.91;12243532;19;20018;-83
2022/06/13 01:34:42;;;;;;;2.97;1.00;;;22.10;38.10;;;20.26;40.44;101239.34;12245184;19;20022;-83
2022/06/13 01:39:15;;;;;;;1.80;0.77;;;22.00;37.90;;;20.21;40.88;101249.50;12245575;19;20052;-83
2022/06/13 01:44:06;;;;;;;1.65;0.73;;;22.00;38.00;;;20.06;40.75;101245.53;12249215;19;20054;-83
2022/06/13 01:48:55;;;;;;;1.55;0.80;;;21.90;38.10;;;20.03;40.89;101225.44;12243026;19;20049;-83
2022/06/13 01:53:10;;;;;;;1.58;1.10;;;21.90;38.10;;;19.85;40.67;101185.47;12246814;19;20018;-83
2022/06/13 01:57:43;;;;;;;2.28;0.88;;;21.80;38.00;;;20.15;40.80;101226.19;12241596;19;20082;-83
2022/06/13 02:01:56;;;;;;;3.15;1.13;;;21.90;38.10;;;20.16;40.96;101234.97;12246437;19;20042;-83
2022/06/13 02:06:16;;;;;;;2.60;0.80;;;21.90;38.20;;;20.21;40.75;101243.38;12242169;19;20026;-83
2022/06/13 02:10:25;;;;;;;2.88;1.15;;;21.90;38.30;;;20.15;40.78;101250.06;12242924;19;20464;-83
2022/06/13 02:15:06;;;;;;;3.53;1.13;;;21.90;38.30;;;20.10;40.99;101261.06;12243448;19;20014;-83
2022/06/13 02:19:17;;;;;;;1.50;1.00;;;21.90;38.30;;;20.09;41.06;101261.19;12242572;19;20407;-83
2022/06/13 02:23:24;;;;;;;1.00;0.80;;;21.90;38.30;;;19.83;41.44;101235.13;12243396;19;20014;-83
2022/06/13 02:27:33;;;;;;;1.23;0.90;;;21.80;38.30;;;19.93;41.31;101255.53;12242794;19;20007;-83
2022/06/13 02:31:42;;;;;;;2.80;0.95;;;21.80;38.70;;;19.92;41.25;101262.66;12242955;19;20476;-83
2022/06/13 02:35:56;;;;;;;2.55;0.88;;;21.70;38.40;;;19.78;41.47;101241.78;12240431;19;20476;-84
2022/06/13 02:40:15;;;;;;;3.88;1.20;;;21.70;38.60;;;19.86;41.68;101265.84;12244784;19;20002;-83
2022/06/13 02:44:46;;;;;;;1.20;0.80;;;21.70;38.80;;;19.83;41.64;101266.94;12243539;19;20704;-83
2022/06/13 02:49:00;;;;;;;3.60;1.00;;;21.60;38.90;;;19.72;41.73;101255.59;12242040;19;20018;-83
2022/06/13 02:53:40;;;;;;;1.90;1.30;;;21.60;39.00;;;19.71;41.89;101269.78;12242543;19;20022;-83
2022/06/13 02:57:50;;;;;;;2.47;1.25;;;21.50;39.10;;;19.64;41.79;101264.16;12237270;19;20352;-83
2022/06/13 03:02:00;;;;;;;3.35;1.10;;;21.50;39.10;;;19.50;42.32;101252.06;12242075;19;20041;-83
2022/06/13 03:06:26;;;;;;;2.90;1.27;;;21.40;39.30;;;19.56;42.28;101250.72;12240689;19;20015;-83
2022/06/13 03:10:54;;;;;;;3.47;1.60;;;21.40;39.50;;;19.36;42.43;101229.41;12237738;19;20018;-83
2022/06/13 03:15:22;;;;;;;2.60;1.15;;;21.30;39.70;;;19.51;42.41;101263.50;12239635;19;20056;-83
2022/06/13 03:19:49;;;;;;;2.08;0.93;;;21.30;39.60;;;19.41;42.63;101251.00;12238008;19;20348;-82
2022/06/13 03:24:32;;;;;;;2.58;1.00;;;21.30;39.80;;;19.37;42.52;101249.59;12241197;19;20028;-85
2022/06/13 03:28:57;;;;;;;3.20;1.30;;;21.20;39.90;;;19.30;42.55;101248.44;12236059;19;20007;-77
2022/06/13 03:37:43;;;;;;;3.63;0.95;;;21.20;40.10;;;19.33;42.94;101274.66;12235890;19;20014;-77
2022/06/13 03:41:55;;;;;;;1.35;1.20;;;21.10;40.10;;;19.34;42.84;101279.00;12238991;19;20366;-77
2022/06/13 03:46:18;;;;;;;3.83;1.10;;;21.10;39.90;;;19.24;42.89;101263.03;12235838;19;20020;-77
2022/06/13 03:50:36;;;;;;;1.45;1.00;;;21.10;40.10;;;19.18;43.09;101260.06;12238316;19;20006;-77
2022/06/13 03:54:50;;;;;;;3.35;1.25;;;21.10;40.20;;;19.24;43.22;101286.88;12236827;19;20010;-77
2022/06/13 03:59:07;;;;;;;1.90;1.00;;;21.10;40.20;;;19.15;43.17;101260.31;12238500;19;20019;-77
2022/06/13 04:03:10;;;;;;;2.85;1.30;;;21.40;40.30;;;19.15;43.10;101263.81;12237642;19;20015;-77
2022/06/13 04:07:12;;;;;;;2.88;1.20;;;21.00;40.30;;;18.77;43.32;101203.44;12228998;19;20015;-77
2022/06/13 04:12:00;;;;;;;4.60;1.10;;;21.20;40.40;;;19.39;43.40;101300.66;12228874;19;20074;-77
2022/06/13 04:16:26;;;;;;;2.92;1.00;;;21.10;40.40;;;19.31;43.17;101279.25;12236303;19;20025;-78
2022/06/13 04:20:54;;;;;;;;;;;21.10;40.40;;;19.23;42.72;101269.31;12236759;19;20030;-78
2022/06/13 04:25:36;;;;;;;1.38;0.90;;;21.10;39.50;;;19.23;43.17;101279.06;12238542;19;19978;-77
2022/06/13 04:30:14;;;;;;;2.15;1.15;;;21.10;40.00;;;19.28;43.19;101300.72;12219611;19;20377;-78
2022/06/13 04:34:22;;;;;;;1.80;1.20;;;21.10;40.40;;;19.24;43.43;101291.31;12237138;19;20015;-78
2022/06/13 04:38:25;;;;;;;2.22;1.10;;;21.10;40.40;;;19.29;43.27;101288.31;12241093;19;20511;-78
2022/06/13 04:42:33;;;;;;;2.58;1.10;;;21.10;40.40;;;19.20;43.66;101282.81;12245582;19;20089;-78
2022/06/13 04:46:37;;;;;;;5.18;1.40;;;21.10;40.50;;;19.22;43.46;101278.19;12244408;19;20090;-77
2022/06/13 04:50:48;;;;;;;5.53;1.58;;;21.10;40.80;;;19.27;43.78;101296.38;12232451;19;20010;-78
2022/06/13 04:55:36;;;;;;;3.47;1.42;;;21.10;40.50;;;19.24;43.66;101280.72;12247176;19;20483;-77
2022/06/13 04:59:41;;;;;;;3.15;1.30;;;21.10;40.50;;;19.41;43.48;101301.34;12242637;19;20029;-77
2022/06/13 05:03:46;;;;;;;2.63;1.40;;;21.10;40.60;;;19.52;43.52;101321.63;12246423;19;20014;-77
2022/06/13 05:07:48;;;;;;;1.92;1.45;;;21.20;40.40;;;19.51;43.42;101314.69;12241999;19;20010;-78
2022/06/13 05:12:21;;;;;;;2.95;1.50;;;21.40;40.60;;;19.55;43.79;101309.94;12249107;19;20022;-78
2022/06/13 05:16:57;;;;;;;3.53;1.42;;;21.30;40.70;;;19.63;43.62;101318.09;12245006;19;20019;-77
2022/06/13 05:21:48;;;;;;;2.95;1.30;;;21.40;40.60;;;19.67;43.56;101316.91;12245680;19;20025;-78
2022/06/13 05:25:54;;;;;;;4.35;1.58;;;21.40;40.30;;;19.61;43.63;101312.94;12244979;19;20015;-77
2022/06/13 05:29:56;;;;;;;4.38;1.25;;;21.40;40.30;;;19.70;43.60;101326.41;12242754;19;20396;-78
2022/06/13 05:33:58;;;;;;;6.25;2.08;;;21.40;40.20;;;19.56;43.61;101306.34;12248442;19;20050;-78
2022/06/13 05:38:03;;;;;;;2.42;1.20;;;21.70;40.40;;;19.69;43.59;101322.94;12241392;19;20018;-78
2022/06/13 05:42:05;;;;;;;1.83;1.30;;;21.50;40.20;;;19.83;43.19;101319.09;12246697;19;20486;-78
2022/06/13 05:46:08;;;;;;;3.53;1.10;;;21.50;39.80;;;19.94;43.55;101320.84;12242645;19;20368;-78
2022/06/13 05:50:19;;;;;;;2.97;1.10;;;21.60;39.80;;;19.84;43.08;101289.81;12241562;19;20022;-77
2022/06/13 05:54:21;;;;;;;3.17;1.50;;;21.70;39.80;;;20.15;43.16;101316.34;12246036;19;20018;-77
2022/06/13 05:58:24;;;;;;;2.53;1.33;;;21.80;39.80;;;19.79;43.06;101223.09;12243713;19;20044;-77
2022/06/13 06:02:26;;;;;;;1.70;1.20;;;21.90;39.80;;;20.46;42.58;101300.41;12244997;19;20022;-77
2022/06/13 06:06:30;;;;;;;2.13;1.10;;;22.20;39.40;;;20.72;42.63;101319.38;12241462;19;20051;-77
2022/06/13 06:10:37;;;;;;;5.18;1.40;;;22.40;39.30;;;20.81;42.62;101305.28;12242872;19;20664;-77
2022/06/13 06:14:39;;;;;;;2.42;0.95;;;22.50;39.20;;;21.08;42.48;101328.50;12242888;19;20025;-78
2022/06/13 06:18:41;;;;;;;2.63;1.20;;;22.50;38.70;;;20.82;42.08;101276.91;12245172;19;20125;-78
2022/06/13 06:22:43;;;;;;;1.23;1.02;;;22.70;38.50;;;21.27;42.38;101348.09;12243379;19;20480;-77
2022/06/13 06:26:45;;;;;;;5.43;1.73;;;22.80;38.60;;;21.31;42.26;101337.06;12240433;19;20014;-78
2022/06/13 06:30:47;;;;;;;3.55;1.30;;;22.90;38.70;;;21.50;41.98;101349.53;12240667;19;20014;-78
2022/06/13 06:34:48;;;;;;;3.25;1.48;;;23.00;38.60;;;21.34;42.17;101302.25;12239913;19;20022;-78
2022/06/13 06:38:50;;;;;;;2.30;1.30;;;23.20;38.60;;;21.76;41.71;101352.44;12243030;19;20007;-78
2022/06/13 06:42:52;;;;;;;3.60;1.65;;;23.30;37.90;;;21.59;41.46;101329.25;12242062;19;20014;-77
2022/06/13 06:46:54;;;;;;;3.65;1.55;;;23.40;37.70;;;21.29;41.26;101304.47;12241748;19;20010;-78
2022/06/13 06:50:56;;;;;;;2.40;1.55;;;23.40;37.30;;;21.41;41.45;101347.72;12237392;19;20039;-77
2022/06/13 07:03:40;;;;;;;2.75;1.52;;;23.10;37.10;;;21.06;41.04;101354.34;12242222;19;20010;-78
2022/06/13 07:07:41;;;;;;;1.98;1.10;;;23.00;36.90;;;21.04;41.27;101361.66;12240381;19;20007;-77
2022/06/13 07:11:56;;;;;;;4.03;1.33;;;22.90;36.90;;;20.86;41.21;101336.72;12238944;19;20015;-78
2022/06/13 07:15:58;;;;;;;2.63;1.20;;;22.80;37.00;;;20.89;41.06;101328.50;12239834;19;20472;-78
2022/06/13 07:19:59;;;;;;;1.40;1.05;;;22.80;36.80;;;20.98;40.93;101319.69;12240845;19;20021;-78
2022/06/13 07:24:01;;;;;;;3.33;1.00;;;22.80;36.90;;;21.10;40.68;101323.91;12240966;19;20011;-78
2022/06/13 07:28:04;;;;;;;3.15;1.25;;;22.90;36.50;;;21.11;40.55;101341.50;12237577;19;20010;-77
2022/06/13 07:32:21;;;;;;;3.08;1.30;;;22.80;36.60;;;21.06;40.13;101329.63;12242148;19;20472;-77
2022/06/13 07:36:23;;;;;;;1.55;1.02;;;22.80;36.00;;;21.06;39.93;101325.16;12235112;19;20011;-77
2022/06/13 07:40:26;;;;;;;1.90;1.13;;;22.90;35.90;;;20.99;40.15;101314.25;12238676;19;20018;-77
2022/06/13 07:44:35;;;;;;;3.28;1.27;;;22.80;35.70;;;21.15;39.74;101334.97;12237132;19;20018;-77
2022/06/13 07:48:37;;;;;;;3.85;1.10;;;22.80;35.60;;;21.28;40.01;101344.47;12240960;19;20464;-77
2022/06/13 07:52:40;;;;;;;1.35;0.90;;;23.00;36.00;;;21.46;39.62;101348.13;12240083;19;20019;-77
2022/06/13 07:56:43;;;;;;;2.67;1.20;;;23.00;35.80;;;21.42;39.50;101352.06;12239678;19;20098;-77
2022/06/13 08:00:49;;;;;;;2.45;1.13;;;23.10;35.30;;;21.26;39.27;101338.47;12237946;19;20014;-77
2022/06/13 08:04:51;;;;;;;2.63;1.27;;;23.10;35.20;;;21.14;39.11;101329.78;12239637;19;20034;-77
2022/06/13 08:08:53;;;;;;;4.00;1.17;;;23.10;34.90;;;20.74;38.85;101269.66;12236669;19;20014;-77
2022/06/13 08:12:55;;;;;;;2.05;1.17;;;23.00;34.80;;;21.06;39.04;101343.75;12253558;19;20010;-77
2022/06/13 08:16:57;;;;;;;2.13;1.00;;;23.20;34.90;;;20.99;39.06;101350.59;12259904;19;20011;-77
2022/06/13 08:20:59;;;;;;;2.35;1.08;;;22.90;34.90;;;20.99;39.00;101355.91;12263546;19;20017;-77
2022/06/13 08:25:01;;;;;;;1.73;0.90;;;23.00;34.90;;;20.95;38.96;101350.03;12258591;19;20022;-77
2022/06/13 08:29:03;;;;;;;1.83;1.00;;;22.80;35.00;;;20.73;38.91;101308.59;12258252;19;20406;-77
2022/06/13 08:33:06;;;;;;;2.05;1.05;;;22.80;35.00;;;21.05;38.76;101359.81;12261886;19;20011;-77
2022/06/13 08:37:08;;;;;;;3.13;0.93;;;22.80;35.00;;;21.00;38.73;101341.63;12257532;19;20038;-77
2022/06/13 08:41:23;;;;;;;2.53;1.00;;;22.90;34.80;;;21.07;38.29;101345.44;12263529;19;20010;-77
2022/06/13 08:45:36;;;;;;;1.23;0.73;;;22.80;34.60;;;21.03;38.15;101336.06;12258351;19;20014;-78
2022/06/13 08:50:00;;;;;;;3.42;0.80;;;22.80;34.50;;;21.36;38.27;101373.81;12257938;19;20375;-78
2022/06/13 08:54:07;;;;;;;2.25;0.98;;;22.90;34.60;;;21.58;38.43;101381.56;12259302;19;20017;-77
2022/06/13 08:58:29;;;;;;;2.63;1.00;;;23.10;34.70;;;21.76;37.90;101372.88;12258453;19;20611;-77
2022/06/13 09:02:49;;;;;;;4.20;1.02;;;23.20;34.60;;;21.99;37.89;101376.91;12262698;19;20010;-77
2022/06/13 09:07:09;;;;;;;2.35;0.77;;;23.40;34.70;;;21.99;37.39;101360.13;12257063;19;20015;-78
2022/06/13 09:11:44;;;;;;;1.35;0.75;;;23.60;34.40;;;22.26;37.47;101378.00;12257890;19;20010;-78
2022/06/13 09:16:12;;;;;;;5.13;1.40;;;23.70;34.30;;;22.29;37.68;101357.25;12260151;19;20019;-77
2022/06/13 09:21:00;;;;;;;2.40;1.13;;;23.80;34.20;;;22.56;37.27;101374.22;12260346;19;20023;-77
2022/06/13 09:25:16;;;;;;;4.47;1.30;;;24.00;33.90;;;22.70;37.46;101387.03;12247187;19;20029;-78
2022/06/13 09:29:44;;;;;;;1.77;0.88;;;24.20;34.00;;;22.73;37.18;101376.09;12244435;19;20026;-77
2022/06/13 09:33:53;;;;;;;3.00;1.35;;;24.30;33.90;;;22.77;37.30;101363.34;12246768;19;20046;-77
2022/06/13 09:38:23;;;;;;;1.42;0.90;;;24.40;33.90;;;22.88;37.08;101363.13;12242639;19;20013;-77
2022/06/13 09:43:06;;;;;;;4.90;1.65;;;24.40;34.10;;;23.09;37.07;101375.38;12248291;19;20030;-78
2022/06/13 09:47:25;;;;;;;2.17;1.17;;;24.60;34.10;;;23.21;36.79;101381.31;12242135;19;20022;-77
2022/06/13 09:52:06;;;;;;;4.03;1.30;;;24.90;34.00;;;23.16;36.67;101376.44;12249283;19;20089;-77
2022/06/13 09:56:40;;;;;;;2.75;1.20;;;24.70;33.70;;;22.95;37.12;101352.69;12243731;19;20034;-77
2022/06/13 10:01:34;;;;;;;2.10;1.08;;;24.80;33.80;;;23.06;36.95;101378.31;12243613;19;20026;-77
2022/06/13 10:05:51;;;;;;;2.55;0.98;;;24.70;33.70;;;22.93;36.78;101376.84;12244670;19;20018;-77
2022/06/13 10:10:13;;;;;;;4.50;1.23;;;24.70;33.60;;;23.02;36.81;101374.31;12242050;19;20025;-78
2022/06/13 10:14:58;;;;;;;3.58;1.42;;;24.70;33.70;;;23.14;36.74;101373.94;12247022;19;20002;-78
2022/06/13 10:19:31;;;;;;;2.55;1.10;;;24.70;33.60;;;23.23;36.54;101368.69;12244723;19;20630;-78
2022/06/13 10:24:21;;;;;;;3.40;1.08;;;24.80;33.50;;;23.23;36.72;101344.72;12243981;19;20405;-78
2022/06/13 10:28:47;;;;;;;2.60;1.15;;;24.80;33.40;;;23.45;36.39;101354.91;12239923;19;20011;-78
2022/06/13 10:33:21;;;;;;;4.93;1.67;;;25.00;33.50;;;23.64;35.93;101354.72;12245893;19;20007;-78
2022/06/13 10:37:59;;;;;;;3.45;1.40;;;25.10;33.40;;;23.79;36.46;101349.72;12239921;19;20015;-78
2022/06/13 10:42:14;;;;;;;4.65;1.45;;;25.20;33.70;;;23.88;36.23;101347.09;12245060;19;20011;-77
2022/06/13 10:46:16;;;;;;;3.03;1.20;;;25.30;33.30;;;23.69;35.71;101305.44;12239080;19;20015;-77
2022/06/13 10:50:39;;;;;;;3.05;1.10;;;25.40;33.20;;;23.88;35.57;101315.09;12241241;19;20011;-77
2022/06/13 10:54:55;;;;;;;3.55;1.25;;;25.50;32.70;;;24.10;35.31;101319.88;12239976;19;20411;-78
2022/06/13 10:58:59;;;;;;;2.85;1.40;;;25.70;32.90;;;24.19;34.99;101324.25;12242185;19;20007;-77
2022/06/13 11:03:17;;;;;;;2.97;1.60;;;25.80;32.40;;;24.35;34.75;101314.66;12239841;19;20010;-77
2022/06/13 11:07:19;;;;;;;2.42;1.00;;;25.90;32.50;;;24.22;35.15;101278.59;12240881;19;20006;-78
2022/06/13 11:11:38;;;;;;;2.55;1.40;;;26.20;32.40;;;24.28;34.56;101277.94;12241292;19;19998;-78
2022/06/13 11:25:00;;;;;;;3.53;1.05;;;26.10;32.10;;;24.61;34.19;101325.31;12242698;19;20039;-78
2022/06/13 11:29:03;;;;;;;2.47;1.10;;;26.10;32.00;;;24.67;34.87;101320.13;12238883;19;20007;-78
2022/06/13 11:33:20;;;;;;;1.60;0.85;;;26.20;32.30;;;24.83;34.52;101322.03;12240935;19;20010;-78
2022/06/13 11:37:24;;;;;;;5.45;1.38;;;26.20;32.00;;;24.98;34.07;101321.38;12235887;19;20453;-78
2022/06/13 11:41:44;;;;;;;3.45;1.40;;;26.40;32.10;;;24.97;33.80;101293.81;12242114;19;20042;-80
2022/06/13 11:45:59;;;;;;;1.77;0.90;;;26.50;31.60;;;24.99;33.41;101293.66;12234147;19;20017;-77
2022/06/13 11:50:26;;;;;;;2.15;1.27;;;26.60;31.20;;;25.09;33.36;101305.88;12237938;19;20011;-77
2022/06/13 11:54:38;;;;;;;2.63;1.35;;;26.70;31.20;;;25.12;33.61;101308.22;12241534;19;20015;-76
2022/06/13 11:58:47;;;;;;;2.30;0.80;;;26.70;31.50;;;25.17;33.70;101295.22;12238979;19;20086;-77
2022/06/13 12:02:49;;;;;;;1.58;0.80;;;27.10;31.50;;;25.33;32.94;101320.28;12235573;19;20014;-77
2022/06/13 12:06:59;;;;;;;1.58;0.93;;;26.90;31.00;;;25.10;33.00;101312.88;12233324;19;20009;-77
2022/06/13 12:11:05;;;;;;;3.28;0.90;;;27.10;30.90;;;25.05;33.38;101325.91;12229947;19;20003;-78
2022/06/13 12:15:13;;;;;;;2.92;1.08;;;26.80;30.80;;;24.90;33.10;101330.25;12233560;19;20020;-77
2022/06/13 12:19:41;;;;;;;2.88;0.95;;;26.70;30.90;;;24.87;33.19;101327.88;12234283;19;20010;-78
2022/06/13 12:23:59;;;;;;;1.33;1.00;;;26.60;30.70;;;24.75;33.34;101316.66;12233144;19;20014;-77
2022/06/13 12:28:14;;;;;;;4.85;1.17;;;26.50;30.90;;;24.82;33.19;101309.69;12231670;19;20027;-77
2022/06/13 12:32:24;;;;;;;5.22;1.17;;;26.50;31.70;;;24.87;32.91;101303.81;12231879;19;20102;-78
2022/06/13 12:37:06;;;;;;;2.38;1.00;;;26.50;31.20;;;24.93;33.34;101335.25;12229939;19;20047;-77
2022/06/13 12:41:36;;;;;;;1.70;0.90;;;26.50;31.20;;;24.75;33.14;101337.19;12232863;19;20010;-77
2022/06/13 12:46:16;;;;;;;5.68;1.35;;;26.50;30.90;;;24.51;33.01;101360.16;12230414;19;20476;-78
2022/06/13 12:50:45;;;;;;;2.63;1.27;;;26.40;31.40;;;24.10;33.69;101349.22;12232005;19;20532;-77
2022/06/13 12:54:54;;;;;;;1.42;1.00;;;26.10;31.80;;;23.92;33.93;101375.13;12232879;19;20085;-78
2022/06/13 12:59:14;;;;;;;8.45;1.33;;;25.90;31.70;;;23.67;33.96;101377.56;12237127;19;20042;-78
2022/06/13 13:03:44;;;;;;;3.67;1.20;;;25.70;31.90;;;23.47;34.08;101384.91;12243401;19;20404;-78
2022/06/13 13:08:23;;;;;;;2.50;1.00;;;25.50;31.80;;;23.28;34.25;101385.06;12239577;19;20347;-78
2022/06/13 13:12:28;;;;;;;4.03;0.90;;;25.20;31.80;;;23.19;34.27;101378.81;12244015;19;20022;-77
2022/06/13 13:16:49;;;;;;;0.93;0.70;;;25.10;31.70;;;23.23;34.22;101390.00;12240130;19;20022;-77
2022/06/13 13:21:20;;;;;;;1.17;0.75;;;25.00;32.00;;;23.16;34.10;101371.09;12244412;19;20010;-78
2022/06/13 13:25:42;;;;;;;2.30;0.80;;;24.90;31.80;;;23.38;33.95;101380.47;12240949;19;20010;-78
2022/06/13 13:30:24;;;;;;;1.38;0.68;;;24.90;31.70;;;23.32;33.63;101349.94;12227955;19;20020;-77
2022/06/13 13:35:25;;;;;;;1.05;0.82;;;25.00;31.80;;;23.56;33.72;101378.66;12240761;19;20025;-77
2022/06/13 13:39:44;;;;;;;1.10;0.63;;;25.00;32.00;;;23.59;33.41;101372.19;12237132;19;20014;-78
2022/06/13 13:43:58;;;;;;;0.98;0.75;;;25.10;31.80;;;23.56;33.62;101372.50;12240928;19;20699;-78
2022/06/13 13:48:19;;;;;;;2.63;0.75;;;25.20;31.70;;;23.53;33.75;101380.81;12239533;19;20006;-79
2022/06/13 13:52:33;;;;;;;2.22;0.90;;;25.10;31.70;;;23.40;33.74;101390.00;12224948;19;20034;-78
2022/06/13 13:56:46;;;;;;;1.38;0.75;;;25.10;32.10;;;23.11;33.80;101355.56;12223724;19;20052;-77
2022/06/13 14:01:30;;;;;;;3.58;1.15;;;25.10;32.10;;;23.24;34.31;101395.19;12223998;19;20121;-76
2022/06/13 14:05:40;;;;;;;2.05;0.90;;;25.00;32.30;;;23.24;34.12;101395.19;12217470;19;20019;-78
2022/06/13 14:09:46;;;;;;;2.65;1.10;;;24.90;32.60;;;23.16;34.52;101366.63;12219714;19;20383;-77
2022/06/13 14:14:06;;;;;;;0.90;0.85;;;24.90;32.70;;;23.44;34.52;101381.69;12222968;19;20045;-78
2022/06/13 14:18:48;;;;;;;2.42;0.80;;;25.00;32.90;;;23.58;34.19;101392.69;12224941;19;20437;-77
2022/06/13 14:22:57;;;;;;;2.38;0.98;;;25.00;32.60;;;23.63;34.03;101393.06;12225137;19;20081;-78
2022/06/13 14:27:02;;;;;;;4.35;1.33;;;25.10;32.50;;;23.68;34.36;101376.56;12220816;19;20434;-77
2022/06/13 14:31:04;;;;;;;1.90;1.10;;;25.10;32.50;;;23.71;33.85;101392.31;12219219;19;20424;-78
2022/06/13 14:35:46;;;;;;;1.77;1.00;;;25.20;32.40;;;23.76;33.90;101378.50;12223990;19;20032;-78
2022/06/13 14:40:06;;;;;;;3.33;0.80;;;25.20;32.40;;;23.77;33.84;101391.69;12219667;19;20458;-78
2022/06/13 14:44:27;;;;;;;0.85;0.80;;;25.30;32.20;;;23.64;33.64;101388.56;12222342;19;20022;-77
2022/06/13 14:48:54;;;;;;;1.92;0.95;;;25.30;31.90;;;23.27;34.09;101362.88;12213861;19;20947;-78
2022/06/13 14:53:36;;;;;;;1.35;0.77;;;25.20;31.70;;;23.32;33.96;101389.94;12222810;19;20036;-77
2022/06/13 14:57:37;;;;;;;3.17;0.90;;;25.10;31.90;;;23.30;33.86;101388.41;12219591;19;20014;-78
2022/06/13 15:02:11;;;;;;;1.77;0.80;;;25.00;32.00;;;23.35;34.05;101380.78;12222495;19;20023;-78
2022/06/13 15:06:19;;;;;;;0.95;0.60;;;24.90;32.10;;;23.25;33.90;101353.38;12223143;19;20022;-78
2022/06/13 15:10:36;;;;;;;1.73;0.75;;;25.00;32.20;;;23.56;33.87;101384.00;12221975;19;20025;-77
2022/06/13 15:14:53;;;;;;;0.60;0.55;;;25.00;32.30;;;23.68;34.22;101387.25;12220669;19;20037;-78
2022/06/13 15:19:04;;;;;;;1.02;0.52;;;25.10;32.20;;;23.69;34.09;101362.25;12221009;19;20018;-75
2022/06/13 15:23:11;;;;;;;0.70;0.57;;;25.20;32.40;;;23.50;33.67;101309.97;12218083;19;20018;-77
2022/06/13 15:27:14;;;;;;;3.22;0.80;;;25.30;32.30;;;23.80;33.67;101364.72;12195995;19;20035;-77
2022/06/13 15:31:26;;;;;;;0.60;0.50;;;25.50;32.30;;;23.92;33.51;101372.47;12216879;19;20652;-76
2022/06/13 15:35:49;;;;;;;0.50;0.50;;;25.40;32.30;;;23.87;33.70;101348.06;12211741;19;20010;-77
2022/06/13 15:39:50;;;;;;;0.68;0.68;;;25.50;32.00;;;23.93;33.81;101366.16;12219202;19;20107;-78
2022/06/13 15:43:55;;;;;;;0.90;0.52;;;25.50;32.30;;;23.87;33.72;101356.91;12213726;19;20040;-78
2022/06/13 15:47:58;;;;;;;0.52;0.52;;;25.50;32.20;;;23.74;34.04;101356.50;12217355;19;20018;-77
2022/06/13 15:52:10;;;;;;;1.10;0.60;;;25.50;32.20;;;23.54;33.74;101350.47;12223357;19;20026;-78
2022/06/13 15:56:37;;;;;;;0.60;0.60;;;25.40;32.10;;;23.39;33.72;101352.84;12218193;19;20024;-79
2022/06/13 16:00:41;;;;;;;1.92;0.40;;;25.30;32.20;;;23.36;34.23;101377.16;12214921;19;20018;-77
2022/06/13 16:04:42;;;;;;;2.63;0.55;;;25.20;32.20;;;23.22;34.15;101377.66;12223647;19;20891;-77
2022/06/13 16:08:48;;;;;;;0.98;0.57;;;25.10;32.20;;;23.04;34.03;101357.19;12222946;19;20014;-77
2022/06/13 16:12:55;;;;;;;1.15;0.50;;;25.00;32.30;;;22.97;33.98;101372.06;12223331;19;20022;-78
2022/06/13 16:17:03;;;;;;;2.13;0.60;;;24.90;32.30;;;22.83;34.19;101381.38;12221558;19;20602;-78
2022/06/13 16:21:10;;;;;;;0.60;0.43;;;24.70;32.60;;;22.66;34.90;101430.94;12221169;19;20018;-77
2022/06/13 16:25:23;;;;;;;2.47;0.80;;;24.60;32.80;;;22.22;35.34;101424.47;12223048;19;20483;-78
2022/06/13 16:29:26;;;;;;;0.60;0.60;;;24.40;34.20;;;21.87;36.01;101420.59;12221789;19;20026;-78
2022/06/13 16:33:33;;;;;;;0.30;0.30;;;24.20;34.40;;;21.72;36.52;101416.69;12228418;19;20043;-78
2022/06/13 16:38:04;;;;;;;0.95;0.40;;;23.90;34.70;;;21.62;36.56;101422.84;12227645;19;20018;-78
2022/06/13 16:42:26;;;;;;;2.65;0.45;;;23.70;34.70;;;21.64;36.37;101434.16;12236104;19;20021;-78
2022/06/13 16:46:41;;;;;;;1.20;0.52;;;23.60;34.30;;;21.63;36.38;101429.84;12230245;19;20050;-78
2022/06/13 16:50:43;;;;;;;0.43;0.43;;;23.50;34.60;;;21.60;35.94;101419.50;12230780;19;20113;-78
2022/06/13 16:55:00;;;;;;;0.47;0.45;;;23.40;34.10;;;21.72;36.04;101443.28;12232512;19;20476;-78
2022/06/13 16:59:06;;;;;;;2.13;0.50;;;23.40;34.10;;;21.42;36.05;101389.28;12236778;19;20038;-78
2022/06/13 17:03:14;;;;;;;0.40;0.40;;;23.30;34.00;;;21.57;35.81;101432.19;12233808;19;20025;-78
2022/06/13 17:07:32;;;;;;;0.40;0.40;;;23.30;34.00;;;21.67;36.05;101454.31;12226720;19;20010;-78
2022/06/13 17:11:52;;;;;;;0.45;0.40;;;23.30;34.50;;;21.73;36.30;101468.88;12234578;19;20019;-79
2022/06/13 17:15:57;;;;;;;0.35;0.32;;;23.30;34.30;;;21.42;36.16;101424.66;12230650;19;20015;-79
2022/06/13 17:20:03;;;;;;;2.80;0.50;;;23.30;34.60;;;21.63;36.27;101456.44;12234325;19;20028;-77
2022/06/13 17:24:05;;;;;;;0.63;0.30;;;23.30;34.70;;;21.47;36.57;101450.81;12233314;19;20021;-77
2022/06/13 17:32:28;;;;;;;0.55;0.40;;;23.20;35.00;;;21.21;36.85;101467.22;12232454;19;20019;-77
2022/06/13 17:36:29;;;;;;;0.40;0.40;;;23.10;35.00;;;21.07;36.86;101459.63;12231475;19;20021;-77
2022/06/13 17:40:36;;;;;;;0.47;0.47;;;23.00;35.10;;;21.03;37.14;101479.47;12230409;19;20014;-79
2022/06/13 17:44:38;;;;;;;0.60;0.47;;;22.90;35.20;;;20.82;36.99;101478.66;12230116;19;20380;-78
2022/06/13 17:48:40;;;;;;;4.88;0.50;;;22.80;35.20;;;20.79;37.32;101501.00;12228303;19;20641;-78
2022/06/13 17:52:42;;;;;;;0.70;0.60;;;22.70;35.10;;;20.29;37.22;101431.88;12234259;19;20014;-77
2022/06/13 17:56:44;;;;;;;0.60;0.60;;;22.50;35.20;;;20.59;37.37;101496.59;12227069;19;20026;-78